sensor_id;sensor_type;location;lat;lon;timestamp;temperature;humidity
44229;DHT22;29904;51.058;5.378;2022-11-18T00:02:18;10.20;99.90
44229;DHT22;29904;51.058;5.378;2022-11-18T00:04:44;10.20;99.90
44229;DHT22;29904;51.058;5.378;2022-11-18T00:07:11;10.20;99.90
44229;DHT22;29904;51.058;5.378;2022-11-18T00:09:39;10.20;99.90
44229;DHT22;29904;51.058;5.378;2022-11-18T00:12:04;10.20;99.90
44229;DHT22;29904;51.058;5.378;2022-11-18T00:14:49;10.10;99.90
44229;DHT22;29904;51.058;5.378;2022-11-18T00:17:15;10.10;99.90
44229;DHT22;29904;51.058;5.378;2022-11-18T00:19:40;10.00;99.90
44229;DHT22;29904;51.058;5.378;2022-11-18T00:22:10;10.00;99.90
44229;DHT22;29904;51.058;5.378;2022-11-18T00:24:36;9.90;99.90
44229;DHT22;29904;51.058;5.378;2022-11-18T00:27:02;9.90;99.90
44229;DHT22;29904;51.058;5.378;2022-11-18T00:29:28;9.90;99.90
44229;DHT22;29904;51.058;5.378;2022-11-18T00:31:56;9.90;99.90
44229;DHT22;29904;51.058;5.378;2022-11-18T00:34:22;9.90;99.90
44229;DHT22;29904;51.058;5.378;2022-11-18T00:36:48;9.90;99.90
44229;DHT22;29904;51.058;5.378;2022-11-18T00:39:16;9.90;99.90
44229;DHT22;29904;51.058;5.378;2022-11-18T00:41:47;9.90;99.90
44229;DHT22;29904;51.058;5.378;2022-11-18T00:44:31;9.90;99.90
44229;DHT22;29904;51.058;5.378;2022-11-18T00:46:57;9.90;99.90
44229;DHT22;29904;51.058;5.378;2022-11-18T00:49:23;9.90;99.90
44229;DHT22;29904;51.058;5.378;2022-11-18T00:51:51;9.90;99.90
44229;DHT22;29904;51.058;5.378;2022-11-18T00:54:17;10.00;99.90
44229;DHT22;29904;51.058;5.378;2022-11-18T00:56:45;10.00;99.90
44229;DHT22;29904;51.058;5.378;2022-11-18T00:59:10;10.00;99.90
44229;DHT22;29904;51.058;5.378;2022-11-18T01:01:36;10.00;99.90
44229;DHT22;29904;51.058;5.378;2022-11-18T01:04:02;9.90;99.90
44229;DHT22;29904;51.058;5.378;2022-11-18T01:06:28;9.80;99.90
44229;DHT22;29904;51.058;5.378;2022-11-18T01:08:54;9.70;99.90
44229;DHT22;29904;51.058;5.378;2022-11-18T01:11:21;9.60;99.90
44229;DHT22;29904;51.058;5.378;2022-11-18T01:14:05;9.50;99.90
44229;DHT22;29904;51.058;5.378;2022-11-18T01:16:31;9.50;99.90
44229;DHT22;29904;51.058;5.378;2022-11-18T01:18:57;9.40;99.90
44229;DHT22;29904;51.058;5.378;2022-11-18T01:21:22;9.40;99.90
44229;DHT22;29904;51.058;5.378;2022-11-18T01:23:48;9.30;99.90
44229;DHT22;29904;51.058;5.378;2022-11-18T01:26:15;9.30;99.90
44229;DHT22;29904;51.058;5.378;2022-11-18T01:28:43;9.30;99.90
44229;DHT22;29904;51.058;5.378;2022-11-18T01:31:14;9.30;99.90
44229;DHT22;29904;51.058;5.378;2022-11-18T01:33:41;9.20;99.90
44229;DHT22;29904;51.058;5.378;2022-11-18T01:36:16;9.20;99.90
44229;DHT22;29904;51.058;5.378;2022-11-18T01:38:42;9.10;99.90
44229;DHT22;29904;51.058;5.378;2022-11-18T01:41:08;9.10;99.90
44229;DHT22;29904;51.058;5.378;2022-11-18T01:43:57;9.00;99.90
44229;DHT22;29904;51.058;5.378;2022-11-18T01:46:32;9.00;99.90
44229;DHT22;29904;51.058;5.378;2022-11-18T01:49:07;9.00;99.90
44229;DHT22;29904;51.058;5.378;2022-11-18T01:51:42;9.00;99.90
44229;DHT22;29904;51.058;5.378;2022-11-18T01:54:18;9.10;99.90
44229;DHT22;29904;51.058;5.378;2022-11-18T01:56:50;9.20;99.90
44229;DHT22;29904;51.058;5.378;2022-11-18T01:59:19;9.30;99.90
44229;DHT22;29904;51.058;5.378;2022-11-18T02:01:47;9.40;99.90
44229;DHT22;29904;51.058;5.378;2022-11-18T02:04:13;9.40;99.90
44229;DHT22;29904;51.058;5.378;2022-11-18T02:06:41;9.50;99.90
44229;DHT22;29904;51.058;5.378;2022-11-18T02:09:08;9.60;99.90
44229;DHT22;29904;51.058;5.378;2022-11-18T02:11:34;9.60;99.90
44229;DHT22;29904;51.058;5.378;2022-11-18T02:14:24;9.60;99.90
44229;DHT22;29904;51.058;5.378;2022-11-18T02:17:21;9.60;99.90
44229;DHT22;29904;51.058;5.378;2022-11-18T02:30:49;9.80;99.90
44229;DHT22;29904;51.058;5.378;2022-11-18T02:33:23;9.80;99.90
44229;DHT22;29904;51.058;5.378;2022-11-18T02:36:07;9.80;99.90
44229;DHT22;29904;51.058;5.378;2022-11-18T02:38:42;9.80;99.90
44229;DHT22;29904;51.058;5.378;2022-11-18T02:41:17;9.90;99.90
44229;DHT22;29904;51.058;5.378;2022-11-18T02:43:53;9.80;99.90
44229;DHT22;29904;51.058;5.378;2022-11-18T02:46:26;9.90;99.90
44229;DHT22;29904;51.058;5.378;2022-11-18T02:48:55;9.90;99.90
44229;DHT22;29904;51.058;5.378;2022-11-18T02:51:24;9.90;99.90
44229;DHT22;29904;51.058;5.378;2022-11-18T02:53:52;9.90;99.90
44229;DHT22;29904;51.058;5.378;2022-11-18T02:56:20;9.80;99.90
44229;DHT22;29904;51.058;5.378;2022-11-18T02:58:48;9.70;99.90
44229;DHT22;29904;51.058;5.378;2022-11-18T03:01:20;9.70;99.90
44229;DHT22;29904;51.058;5.378;2022-11-18T03:03:48;9.70;99.90
44229;DHT22;29904;51.058;5.378;2022-11-18T03:06:23;9.70;99.90
44229;DHT22;29904;51.058;5.378;2022-11-18T03:09:11;9.70;99.90
44229;DHT22;29904;51.058;5.378;2022-11-18T03:23:06;9.70;99.90
44229;DHT22;29904;51.058;5.378;2022-11-18T03:26:06;9.60;99.90
44229;DHT22;29904;51.058;5.378;2022-11-18T03:28:48;9.60;99.90
44229;DHT22;29904;51.058;5.378;2022-11-18T03:31:27;9.50;99.90
44229;DHT22;29904;51.058;5.378;2022-11-18T03:34:01;9.50;99.90
44229;DHT22;29904;51.058;5.378;2022-11-18T03:36:32;9.50;99.90
44229;DHT22;29904;51.058;5.378;2022-11-18T03:39:00;9.50;99.90
44229;DHT22;29904;51.058;5.378;2022-11-18T03:41:31;9.50;99.90
44229;DHT22;29904;51.058;5.378;2022-11-18T03:44:09;9.40;99.90
44229;DHT22;29904;51.058;5.378;2022-11-18T03:49:37;9.30;99.90
44229;DHT22;29904;51.058;5.378;2022-11-18T03:52:14;9.40;99.90
44229;DHT22;29904;51.058;5.378;2022-11-18T03:54:43;9.40;99.90
44229;DHT22;29904;51.058;5.378;2022-11-18T03:57:16;9.40;99.90
44229;DHT22;29904;51.058;5.378;2022-11-18T03:59:48;9.30;99.90
44229;DHT22;29904;51.058;5.378;2022-11-18T04:02:19;9.30;99.90
44229;DHT22;29904;51.058;5.378;2022-11-18T04:04:50;9.30;99.90
44229;DHT22;29904;51.058;5.378;2022-11-18T04:10:10;9.20;99.90
44229;DHT22;29904;51.058;5.378;2022-11-18T04:12:44;9.20;99.90
44229;DHT22;29904;51.058;5.378;2022-11-18T04:15:14;9.10;99.90
44229;DHT22;29904;51.058;5.378;2022-11-18T04:17:42;9.10;99.90
44229;DHT22;29904;51.058;5.378;2022-11-18T04:20:17;9.00;99.90
44229;DHT22;29904;51.058;5.378;2022-11-18T04:22:43;8.90;99.90
44229;DHT22;29904;51.058;5.378;2022-11-18T04:25:10;8.90;99.90
44229;DHT22;29904;51.058;5.378;2022-11-18T04:27:37;8.70;99.90
44229;DHT22;29904;51.058;5.378;2022-11-18T04:30:04;8.70;99.90
44229;DHT22;29904;51.058;5.378;2022-11-18T04:32:31;8.60;99.90
44229;DHT22;29904;51.058;5.378;2022-11-18T04:34:56;8.60;99.90
44229;DHT22;29904;51.058;5.378;2022-11-18T04:37:22;8.50;99.90
44229;DHT22;29904;51.058;5.378;2022-11-18T04:39:48;8.50;99.90
44229;DHT22;29904;51.058;5.378;2022-11-18T04:42:14;8.40;99.90
44229;DHT22;29904;51.058;5.378;2022-11-18T04:44:40;8.40;99.90
44229;DHT22;29904;51.058;5.378;2022-11-18T04:47:06;8.30;99.90
44229;DHT22;29904;51.058;5.378;2022-11-18T04:49:32;8.30;99.90
44229;DHT22;29904;51.058;5.378;2022-11-18T04:51:58;8.30;99.90
44229;DHT22;29904;51.058;5.378;2022-11-18T04:54:25;8.30;99.90
44229;DHT22;29904;51.058;5.378;2022-11-18T04:56:52;8.20;99.90
44229;DHT22;29904;51.058;5.378;2022-11-18T04:59:21;8.10;99.90
44229;DHT22;29904;51.058;5.378;2022-11-18T05:01:48;8.10;99.90
44229;DHT22;29904;51.058;5.378;2022-11-18T05:04:22;8.10;99.90
44229;DHT22;29904;51.058;5.378;2022-11-18T05:06:48;8.00;99.90
44229;DHT22;29904;51.058;5.378;2022-11-18T05:09:16;8.00;99.90
44229;DHT22;29904;51.058;5.378;2022-11-18T05:11:42;8.00;99.90
44229;DHT22;29904;51.058;5.378;2022-11-18T05:14:28;7.90;99.90
44229;DHT22;29904;51.058;5.378;2022-11-18T05:16:55;7.80;99.90
44229;DHT22;29904;51.058;5.378;2022-11-18T05:19:21;7.80;99.90
44229;DHT22;29904;51.058;5.378;2022-11-18T05:21:50;7.80;99.90
44229;DHT22;29904;51.058;5.378;2022-11-18T05:24:16;7.80;99.90
44229;DHT22;29904;51.058;5.378;2022-11-18T05:26:41;7.70;99.90
44229;DHT22;29904;51.058;5.378;2022-11-18T05:29:07;7.70;99.90
44229;DHT22;29904;51.058;5.378;2022-11-18T05:31:33;7.70;99.90
44229;DHT22;29904;51.058;5.378;2022-11-18T05:33:59;7.60;99.90
44229;DHT22;29904;51.058;5.378;2022-11-18T05:36:25;7.60;99.90
44229;DHT22;29904;51.058;5.378;2022-11-18T05:38:50;7.60;99.90
44229;DHT22;29904;51.058;5.378;2022-11-18T05:41:17;7.60;99.90
44229;DHT22;29904;51.058;5.378;2022-11-18T05:44:06;7.50;99.90
44229;DHT22;29904;51.058;5.378;2022-11-18T05:46:32;7.50;99.90
44229;DHT22;29904;51.058;5.378;2022-11-18T05:48:57;7.50;99.90
44229;DHT22;29904;51.058;5.378;2022-11-18T05:51:25;7.50;99.90
44229;DHT22;29904;51.058;5.378;2022-11-18T05:53:52;7.40;99.90
44229;DHT22;29904;51.058;5.378;2022-11-18T05:56:29;7.40;99.90
44229;DHT22;29904;51.058;5.378;2022-11-18T05:58:57;7.40;99.90
44229;DHT22;29904;51.058;5.378;2022-11-18T06:01:31;7.40;99.90
44229;DHT22;29904;51.058;5.378;2022-11-18T06:03:58;7.40;99.90
44229;DHT22;29904;51.058;5.378;2022-11-18T06:06:26;7.30;99.90
44229;DHT22;29904;51.058;5.378;2022-11-18T06:09:04;7.40;99.90
44229;DHT22;29904;51.058;5.378;2022-11-18T06:11:36;7.30;99.90
44229;DHT22;29904;51.058;5.378;2022-11-18T06:14:18;7.30;99.90
44229;DHT22;29904;51.058;5.378;2022-11-18T06:16:49;7.20;99.90
44229;DHT22;29904;51.058;5.378;2022-11-18T06:19:16;7.20;99.90
44229;DHT22;29904;51.058;5.378;2022-11-18T06:21:42;7.20;99.90
44229;DHT22;29904;51.058;5.378;2022-11-18T06:24:09;7.20;99.90
44229;DHT22;29904;51.058;5.378;2022-11-18T06:26:37;7.20;99.90
44229;DHT22;29904;51.058;5.378;2022-11-18T06:29:05;7.20;99.90
44229;DHT22;29904;51.058;5.378;2022-11-18T06:31:32;7.20;99.90
44229;DHT22;29904;51.058;5.378;2022-11-18T06:33:58;7.10;99.90
44229;DHT22;29904;51.058;5.378;2022-11-18T06:36:24;7.10;99.90
44229;DHT22;29904;51.058;5.378;2022-11-18T06:38:49;7.10;99.90
44229;DHT22;29904;51.058;5.378;2022-11-18T06:41:15;7.20;99.90
44229;DHT22;29904;51.058;5.378;2022-11-18T06:43:40;7.10;99.90
44229;DHT22;29904;51.058;5.378;2022-11-18T06:46:12;7.10;99.90
44229;DHT22;29904;51.058;5.378;2022-11-18T06:48:57;7.10;99.90
44229;DHT22;29904;51.058;5.378;2022-11-18T06:51:23;7.10;99.90
44229;DHT22;29904;51.058;5.378;2022-11-18T06:53:50;7.10;99.90
44229;DHT22;29904;51.058;5.378;2022-11-18T06:56:18;7.10;99.90
44229;DHT22;29904;51.058;5.378;2022-11-18T06:58:45;7.10;99.90
44229;DHT22;29904;51.058;5.378;2022-11-18T07:01:16;7.10;99.90
44229;DHT22;29904;51.058;5.378;2022-11-18T07:03:43;7.10;99.90
44229;DHT22;29904;51.058;5.378;2022-11-18T07:06:10;7.10;99.90
44229;DHT22;29904;51.058;5.378;2022-11-18T07:08:37;7.10;99.90
44229;DHT22;29904;51.058;5.378;2022-11-18T07:11:05;7.10;99.90
44229;DHT22;29904;51.058;5.378;2022-11-18T07:13:31;7.10;99.90
44229;DHT22;29904;51.058;5.378;2022-11-18T07:16:21;7.10;99.90
44229;DHT22;29904;51.058;5.378;2022-11-18T07:18:48;7.10;99.90
44229;DHT22;29904;51.058;5.378;2022-11-18T07:21:25;7.20;99.90
44229;DHT22;29904;51.058;5.378;2022-11-18T07:23:52;7.10;99.90
44229;DHT22;29904;51.058;5.378;2022-11-18T07:26:18;7.10;99.90
44229;DHT22;29904;51.058;5.378;2022-11-18T07:28:46;7.20;99.90
44229;DHT22;29904;51.058;5.378;2022-11-18T07:31:14;7.20;99.90
44229;DHT22;29904;51.058;5.378;2022-11-18T07:33:41;7.20;99.90
44229;DHT22;29904;51.058;5.378;2022-11-18T07:36:13;7.20;99.90
44229;DHT22;29904;51.058;5.378;2022-11-18T07:38:39;7.30;99.90
44229;DHT22;29904;51.058;5.378;2022-11-18T07:41:14;7.20;99.90
44229;DHT22;29904;51.058;5.378;2022-11-18T07:43:41;7.20;99.90
44229;DHT22;29904;51.058;5.378;2022-11-18T07:46:22;7.30;99.90
44229;DHT22;29904;51.058;5.378;2022-11-18T07:48:50;7.40;99.90
44229;DHT22;29904;51.058;5.378;2022-11-18T07:51:18;7.40;99.90
44229;DHT22;29904;51.058;5.378;2022-11-18T07:53:46;7.50;99.90
44229;DHT22;29904;51.058;5.378;2022-11-18T07:56:12;7.50;99.90
44229;DHT22;29904;51.058;5.378;2022-11-18T07:58:38;7.50;99.90
44229;DHT22;29904;51.058;5.378;2022-11-18T08:01:12;7.50;99.90
44229;DHT22;29904;51.058;5.378;2022-11-18T08:03:38;7.50;99.90
44229;DHT22;29904;51.058;5.378;2022-11-18T08:06:06;7.60;99.90
44229;DHT22;29904;51.058;5.378;2022-11-18T08:08:32;7.70;99.90
44229;DHT22;29904;51.058;5.378;2022-11-18T08:11:00;7.70;99.90
44229;DHT22;29904;51.058;5.378;2022-11-18T08:13:29;7.80;99.90
44229;DHT22;29904;51.058;5.378;2022-11-18T08:15:55;7.80;99.90
44229;DHT22;29904;51.058;5.378;2022-11-18T08:18:21;7.80;99.90
44229;DHT22;29904;51.058;5.378;2022-11-18T08:20:48;7.80;99.90
44229;DHT22;29904;51.058;5.378;2022-11-18T08:23:14;7.90;99.90
44229;DHT22;29904;51.058;5.378;2022-11-18T08:25:42;7.90;99.90
44229;DHT22;29904;51.058;5.378;2022-11-18T08:28:09;8.00;99.90
44229;DHT22;29904;51.058;5.378;2022-11-18T08:30:39;8.00;99.90
44229;DHT22;29904;51.058;5.378;2022-11-18T08:33:05;8.00;99.90
44229;DHT22;29904;51.058;5.378;2022-11-18T08:35:32;8.10;99.90
44229;DHT22;29904;51.058;5.378;2022-11-18T08:37:58;8.10;99.90
44229;DHT22;29904;51.058;5.378;2022-11-18T08:40:24;8.20;99.90
44229;DHT22;29904;51.058;5.378;2022-11-18T08:42:50;8.30;99.90
44229;DHT22;29904;51.058;5.378;2022-11-18T08:45:18;8.30;99.90
44229;DHT22;29904;51.058;5.378;2022-11-18T08:47:44;8.30;99.90
44229;DHT22;29904;51.058;5.378;2022-11-18T08:50:10;8.40;99.90
44229;DHT22;29904;51.058;5.378;2022-11-18T08:52:37;8.40;99.90
44229;DHT22;29904;51.058;5.378;2022-11-18T08:55:03;8.40;99.90
44229;DHT22;29904;51.058;5.378;2022-11-18T08:57:29;8.50;99.90
44229;DHT22;29904;51.058;5.378;2022-11-18T08:59:54;8.60;99.90
44229;DHT22;29904;51.058;5.378;2022-11-18T09:02:21;8.60;99.90
44229;DHT22;29904;51.058;5.378;2022-11-18T09:04:50;8.70;99.90
44229;DHT22;29904;51.058;5.378;2022-11-18T09:07:20;8.80;99.90
44229;DHT22;29904;51.058;5.378;2022-11-18T09:09:46;8.90;99.90
44229;DHT22;29904;51.058;5.378;2022-11-18T09:12:11;9.00;99.90
44229;DHT22;29904;51.058;5.378;2022-11-18T09:14:43;9.00;99.90
44229;DHT22;29904;51.058;5.378;2022-11-18T09:17:09;9.10;99.90
44229;DHT22;29904;51.058;5.378;2022-11-18T09:19:37;9.20;99.90
44229;DHT22;29904;51.058;5.378;2022-11-18T09:22:04;9.30;99.90
44229;DHT22;29904;51.058;5.378;2022-11-18T09:24:30;9.40;99.90
44229;DHT22;29904;51.058;5.378;2022-11-18T09:26:57;9.50;99.90
44229;DHT22;29904;51.058;5.378;2022-11-18T09:29:23;9.60;99.90
44229;DHT22;29904;51.058;5.378;2022-11-18T09:31:51;9.80;99.90
44229;DHT22;29904;51.058;5.378;2022-11-18T09:34:17;9.90;99.90
44229;DHT22;29904;51.058;5.378;2022-11-18T09:36:43;10.00;99.90
44229;DHT22;29904;51.058;5.378;2022-11-18T09:39:09;10.00;99.90
44229;DHT22;29904;51.058;5.378;2022-11-18T09:49:42;10.50;99.90
44229;DHT22;29904;51.058;5.378;2022-11-18T09:52:16;10.50;99.90
44229;DHT22;29904;51.058;5.378;2022-11-18T09:54:43;10.60;99.90
44229;DHT22;29904;51.058;5.378;2022-11-18T09:57:14;10.60;99.90
44229;DHT22;29904;51.058;5.378;2022-11-18T09:59:41;10.70;99.90
44229;DHT22;29904;51.058;5.378;2022-11-18T10:05:20;10.70;99.90
44229;DHT22;29904;51.058;5.378;2022-11-18T10:07:58;10.70;99.90
44229;DHT22;29904;51.058;5.378;2022-11-18T10:11:27;10.80;99.90
44229;DHT22;29904;51.058;5.378;2022-11-18T10:13:39;10.80;99.90
44229;DHT22;29904;51.058;5.378;2022-11-18T10:24:44;11.00;99.90
44229;DHT22;29904;51.058;5.378;2022-11-18T10:27:12;11.20;99.90
44229;DHT22;29904;51.058;5.378;2022-11-18T10:29:38;11.30;99.90
44229;DHT22;29904;51.058;5.378;2022-11-18T10:32:15;11.40;99.90
44229;DHT22;29904;51.058;5.378;2022-11-18T10:39:55;11.70;99.90
44229;DHT22;29904;51.058;5.378;2022-11-18T10:42:27;11.70;99.90
44229;DHT22;29904;51.058;5.378;2022-11-18T10:44:55;11.80;99.90
44229;DHT22;29904;51.058;5.378;2022-11-18T10:47:38;11.90;99.90
44229;DHT22;29904;51.058;5.378;2022-11-18T10:52:53;12.00;99.90
44229;DHT22;29904;51.058;5.378;2022-11-18T10:55:21;12.10;99.90
44229;DHT22;29904;51.058;5.378;2022-11-18T10:57:51;12.20;99.90
44229;DHT22;29904;51.058;5.378;2022-11-18T11:03:29;12.30;99.90
44229;DHT22;29904;51.058;5.378;2022-11-18T11:08:57;12.40;99.90
44229;DHT22;29904;51.058;5.378;2022-11-18T11:11:26;12.50;99.90
44229;DHT22;29904;51.058;5.378;2022-11-18T11:16:35;12.40;99.90
44229;DHT22;29904;51.058;5.378;2022-11-18T11:19:02;12.30;99.90
44229;DHT22;29904;51.058;5.378;2022-11-18T11:21:29;12.30;99.90
44229;DHT22;29904;51.058;5.378;2022-11-18T11:23:55;12.20;99.90
44229;DHT22;29904;51.058;5.378;2022-11-18T11:26:33;12.20;99.90
44229;DHT22;29904;51.058;5.378;2022-11-18T11:29:33;12.20;99.90
44229;DHT22;29904;51.058;5.378;2022-11-18T11:34:58;12.20;99.90
44229;DHT22;29904;51.058;5.378;2022-11-18T11:40:39;12.20;99.90
44229;DHT22;29904;51.058;5.378;2022-11-18T11:50:54;12.40;99.90
44229;DHT22;29904;51.058;5.378;2022-11-18T11:57:00;12.80;99.90
44229;DHT22;29904;51.058;5.378;2022-11-18T11:59:31;12.90;99.90
44229;DHT22;29904;51.058;5.378;2022-11-18T12:05:31;12.90;99.90
44229;DHT22;29904;51.058;5.378;2022-11-18T12:08:03;13.00;99.90
44229;DHT22;29904;51.058;5.378;2022-11-18T12:10:40;13.20;99.90
44229;DHT22;29904;51.058;5.378;2022-11-18T12:13:34;13.20;99.90
44229;DHT22;29904;51.058;5.378;2022-11-18T12:26:50;12.80;99.90
44229;DHT22;29904;51.058;5.378;2022-11-18T12:43:05;13.20;99.90
44229;DHT22;29904;51.058;5.378;2022-11-18T12:45:55;13.20;99.90
44229;DHT22;29904;51.058;5.378;2022-11-18T12:48:36;13.30;99.90
44229;DHT22;29904;51.058;5.378;2022-11-18T12:54:02;13.10;99.90
44229;DHT22;29904;51.058;5.378;2022-11-18T12:56:35;13.10;99.90
44229;DHT22;29904;51.058;5.378;2022-11-18T12:59:03;13.10;99.90
44229;DHT22;29904;51.058;5.378;2022-11-18T13:01:31;13.00;99.90
44229;DHT22;29904;51.058;5.378;2022-11-18T13:04:10;13.00;99.90
44229;DHT22;29904;51.058;5.378;2022-11-18T13:06:38;13.00;99.90
44229;DHT22;29904;51.058;5.378;2022-11-18T13:09:11;12.90;99.90
44229;DHT22;29904;51.058;5.378;2022-11-18T13:14:41;12.90;99.90
44229;DHT22;29904;51.058;5.378;2022-11-18T13:17:40;12.80;99.90
44229;DHT22;29904;51.058;5.378;2022-11-18T13:20:37;12.60;99.90
44229;DHT22;29904;51.058;5.378;2022-11-18T13:26:02;12.40;99.90
44229;DHT22;29904;51.058;5.378;2022-11-18T13:33:45;12.40;99.90
44229;DHT22;29904;51.058;5.378;2022-11-18T13:36:18;12.40;99.90
44229;DHT22;29904;51.058;5.378;2022-11-18T13:38:58;12.40;99.90
44229;DHT22;29904;51.058;5.378;2022-11-18T13:41:26;12.40;99.90
44229;DHT22;29904;51.058;5.378;2022-11-18T13:44:23;12.50;99.90
44229;DHT22;29904;51.058;5.378;2022-11-18T13:49:48;12.60;99.90
44229;DHT22;29904;51.058;5.378;2022-11-18T13:52:23;12.60;99.90
44229;DHT22;29904;51.058;5.378;2022-11-18T13:54:53;12.50;99.90
44229;DHT22;29904;51.058;5.378;2022-11-18T13:57:22;12.50;99.90
44229;DHT22;29904;51.058;5.378;2022-11-18T13:59:51;12.40;99.90
44229;DHT22;29904;51.058;5.378;2022-11-18T14:02:18;12.40;99.90
44229;DHT22;29904;51.058;5.378;2022-11-18T14:04:51;12.40;99.90
44229;DHT22;29904;51.058;5.378;2022-11-18T14:10:31;12.10;99.90
44229;DHT22;29904;51.058;5.378;2022-11-18T14:12:59;12.10;99.90
44229;DHT22;29904;51.058;5.378;2022-11-18T14:17:55;12.00;99.90
44229;DHT22;29904;51.058;5.378;2022-11-18T14:20:22;12.00;99.90
44229;DHT22;29904;51.058;5.378;2022-11-18T14:22:57;12.00;99.90
44229;DHT22;29904;51.058;5.378;2022-11-18T14:25:31;11.90;99.90
44229;DHT22;29904;51.058;5.378;2022-11-18T14:28:29;11.90;99.90
44229;DHT22;29904;51.058;5.378;2022-11-18T14:33:28;11.70;99.90
44229;DHT22;29904;51.058;5.378;2022-11-18T14:41:04;11.20;99.90
44229;DHT22;29904;51.058;5.378;2022-11-18T14:43:30;11.10;99.90
44229;DHT22;29904;51.058;5.378;2022-11-18T14:46:00;11.00;99.90
44229;DHT22;29904;51.058;5.378;2022-11-18T14:48:28;10.80;99.90
44229;DHT22;29904;51.058;5.378;2022-11-18T14:50:54;10.60;99.90
44229;DHT22;29904;51.058;5.378;2022-11-18T14:53:20;10.60;99.90
44229;DHT22;29904;51.058;5.378;2022-11-18T14:55:51;10.50;99.90
44229;DHT22;29904;51.058;5.378;2022-11-18T14:58:17;10.40;99.90
44229;DHT22;29904;51.058;5.378;2022-11-18T15:00:46;10.40;99.90
44229;DHT22;29904;51.058;5.378;2022-11-18T15:03:15;10.40;99.90
44229;DHT22;29904;51.058;5.378;2022-11-18T15:05:41;10.40;99.90
44229;DHT22;29904;51.058;5.378;2022-11-18T15:08:07;10.40;99.90
44229;DHT22;29904;51.058;5.378;2022-11-18T15:10:33;10.30;99.90
44229;DHT22;29904;51.058;5.378;2022-11-18T15:12:59;10.30;99.90
44229;DHT22;29904;51.058;5.378;2022-11-18T15:15:25;10.40;99.90
44229;DHT22;29904;51.058;5.378;2022-11-18T15:17:52;10.40;99.90
44229;DHT22;29904;51.058;5.378;2022-11-18T15:20:20;10.40;99.90
44229;DHT22;29904;51.058;5.378;2022-11-18T15:22:46;10.30;99.90
44229;DHT22;29904;51.058;5.378;2022-11-18T15:25:13;10.30;99.90
44229;DHT22;29904;51.058;5.378;2022-11-18T15:27:39;10.30;99.90
44229;DHT22;29904;51.058;5.378;2022-11-18T15:30:05;10.30;99.90
44229;DHT22;29904;51.058;5.378;2022-11-18T15:32:31;10.30;99.90
44229;DHT22;29904;51.058;5.378;2022-11-18T15:34:59;10.30;99.90
44229;DHT22;29904;51.058;5.378;2022-11-18T15:37:25;10.30;99.90
44229;DHT22;29904;51.058;5.378;2022-11-18T15:39:51;10.20;99.90
44229;DHT22;29904;51.058;5.378;2022-11-18T15:42:17;10.30;99.90
44229;DHT22;29904;51.058;5.378;2022-11-18T15:44:43;10.30;99.90
44229;DHT22;29904;51.058;5.378;2022-11-18T15:47:09;10.30;99.90
44229;DHT22;29904;51.058;5.378;2022-11-18T15:49:37;10.20;99.90
44229;DHT22;29904;51.058;5.378;2022-11-18T15:52:10;10.30;99.90
44229;DHT22;29904;51.058;5.378;2022-11-18T15:54:36;10.20;99.90
44229;DHT22;29904;51.058;5.378;2022-11-18T15:57:02;10.20;99.90
44229;DHT22;29904;51.058;5.378;2022-11-18T15:59:30;10.20;99.90
44229;DHT22;29904;51.058;5.378;2022-11-18T16:01:56;10.10;99.90
44229;DHT22;29904;51.058;5.378;2022-11-18T16:04:21;10.10;99.90
44229;DHT22;29904;51.058;5.378;2022-11-18T16:06:47;10.10;99.90
44229;DHT22;29904;51.058;5.378;2022-11-18T16:09:14;10.10;99.90
44229;DHT22;29904;51.058;5.378;2022-11-18T16:11:41;10.10;99.90
44229;DHT22;29904;51.058;5.378;2022-11-18T16:14:27;10.00;99.90
44229;DHT22;29904;51.058;5.378;2022-11-18T16:16:54;10.00;99.90
44229;DHT22;29904;51.058;5.378;2022-11-18T16:19:23;10.00;99.90
44229;DHT22;29904;51.058;5.378;2022-11-18T16:21:53;10.10;99.90
44229;DHT22;29904;51.058;5.378;2022-11-18T16:24:22;10.00;99.90
44229;DHT22;29904;51.058;5.378;2022-11-18T16:26:48;10.00;99.90
44229;DHT22;29904;51.058;5.378;2022-11-18T16:29:14;10.10;99.90
44229;DHT22;29904;51.058;5.378;2022-11-18T16:31:42;10.00;99.90
44229;DHT22;29904;51.058;5.378;2022-11-18T16:34:12;10.00;99.90
44229;DHT22;29904;51.058;5.378;2022-11-18T16:36:39;10.00;99.90
44229;DHT22;29904;51.058;5.378;2022-11-18T16:41:37;10.10;99.90
44229;DHT22;29904;51.058;5.378;2022-11-18T16:44:05;10.10;99.90
44229;DHT22;29904;51.058;5.378;2022-11-18T16:46:35;10.10;99.90
44229;DHT22;29904;51.058;5.378;2022-11-18T16:49:02;10.10;99.90
44229;DHT22;29904;51.058;5.378;2022-11-18T16:51:29;10.00;99.90
44229;DHT22;29904;51.058;5.378;2022-11-18T16:53:58;10.10;99.90
44229;DHT22;29904;51.058;5.378;2022-11-18T16:56:27;10.00;99.90
44229;DHT22;29904;51.058;5.378;2022-11-18T16:59:09;10.00;99.90
44229;DHT22;29904;51.058;5.378;2022-11-18T17:01:37;10.00;99.90
44229;DHT22;29904;51.058;5.378;2022-11-18T17:04:03;10.10;99.90
44229;DHT22;29904;51.058;5.378;2022-11-18T17:06:29;10.10;99.90
44229;DHT22;29904;51.058;5.378;2022-11-18T17:08:58;10.10;99.90
44229;DHT22;29904;51.058;5.378;2022-11-18T17:11:24;10.10;99.90
44229;DHT22;29904;51.058;5.378;2022-11-18T17:13:52;10.10;99.90
44229;DHT22;29904;51.058;5.378;2022-11-18T17:16:19;10.10;99.90
44229;DHT22;29904;51.058;5.378;2022-11-18T17:18:45;10.10;99.90
44229;DHT22;29904;51.058;5.378;2022-11-18T17:21:16;10.10;99.90
44229;DHT22;29904;51.058;5.378;2022-11-18T17:23:43;10.00;99.90
44229;DHT22;29904;51.058;5.378;2022-11-18T17:26:09;10.10;99.90
44229;DHT22;29904;51.058;5.378;2022-11-18T17:28:36;10.00;99.90
44229;DHT22;29904;51.058;5.378;2022-11-18T17:31:07;10.10;99.90
44229;DHT22;29904;51.058;5.378;2022-11-18T17:33:34;10.10;99.90
44229;DHT22;29904;51.058;5.378;2022-11-18T17:36:01;10.00;99.90
44229;DHT22;29904;51.058;5.378;2022-11-18T17:38:28;10.00;99.90
44229;DHT22;29904;51.058;5.378;2022-11-18T17:40:59;10.10;99.90
44229;DHT22;29904;51.058;5.378;2022-11-18T17:43:27;10.00;99.90
44229;DHT22;29904;51.058;5.378;2022-11-18T17:45:55;10.00;99.90
44229;DHT22;29904;51.058;5.378;2022-11-18T17:48:23;10.00;99.90
44229;DHT22;29904;51.058;5.378;2022-11-18T17:50:51;10.00;99.90
44229;DHT22;29904;51.058;5.378;2022-11-18T17:53:17;10.00;99.90
44229;DHT22;29904;51.058;5.378;2022-11-18T17:55:44;10.10;99.90
44229;DHT22;29904;51.058;5.378;2022-11-18T17:58:10;10.10;99.90
44229;DHT22;29904;51.058;5.378;2022-11-18T18:00:37;10.10;99.90
44229;DHT22;29904;51.058;5.378;2022-11-18T18:03:03;10.10;99.90
44229;DHT22;29904;51.058;5.378;2022-11-18T18:05:31;10.00;99.90
44229;DHT22;29904;51.058;5.378;2022-11-18T18:07:57;10.00;99.90
44229;DHT22;29904;51.058;5.378;2022-11-18T18:10:24;10.00;99.90
44229;DHT22;29904;51.058;5.378;2022-11-18T18:12:52;10.00;99.90
44229;DHT22;29904;51.058;5.378;2022-11-18T18:15:36;10.00;99.90
44229;DHT22;29904;51.058;5.378;2022-11-18T18:18:02;10.00;99.90
44229;DHT22;29904;51.058;5.378;2022-11-18T18:20:28;9.90;99.90